Big Trout Lake Airport
CYTL : now visible

Airfield :











YOU CAN JOIN US ON...

 
LOGIN :

Register | Disclaimer

   EN    FR    IT 

 









Legend :    VFR   Marginal VFR   IFR   Intensive IFR   Very Intensive IFR
Visi :
Ceiling :
>= 8 km
>= 3000ft
5 to 8 km
1000 to 3000 ft
1500m to 5 km
500 to 1000 ft
800 to 1500m
200 to 500 ft
< 800m
< 200 ft
Symbols :   Thunderstorms  Fog  Heavy snow  Heavy precipitations  Wind > 20 kt






- Airport Elevation : 729 ft
- IATA code : YTL


CYTL - Big Trout Lake

CURRENT METAR :
  • 021700Z AUTO 31012G22KT 290V350 9SM OVC034 15/09 A2983 RMK SLP113 DENSITY ALT 1100FT

EXPIRED METARs :
  • 021600Z AUTO 31013G22KT 9SM BKN025 14/09 A2983 RMK SLP111 DENSITY ALT 900FT
  • 021558Z AUTO 31011G22KT 9SM BKN025 14/09 A2982 RMK SLP108 DENSITY ALT 900FT
  • 021500Z AUTO 30011G21KT 9SM OVC014 12/09 A2982 RMK SLP108

TAF TAF CYTL
Valid from the 02 at 14:00 until the 03 at 02:00 UTC


021340Z 0214/0302 32012G22KT P6SM BKN010 OVC025
TEMPO 0214/0216 BKN008 OVC010
FM021600 32015G25KT P6SM BKN030
TEMPO 0216/0302 BKN020
BECMG 0223/0301 31010KT RMK FCST BASED ON AUTO OBS. NXT FCST BY 022000Z
CZWG FIR / North America



MET'MAP, your aeronautical weather chart ! - Copyright ORBIFLY December 2007 - Disclaimer

ORBIFLY MET'MAP TEAM :

Programming & Development : Alexandra Zaïnal
Original concept : Baudouin d'Aumeries
Technical & hardware support : Manuel Goepfert
Assistance : Marc-Olivier Méhu




SOURCES & CREDITS :

   NOAA       Earth
Advisory